sensor_id;sensor_type;location;lat;lon;timestamp;P1;durP1;ratioP1;P2;durP2;ratioP2
76640;SDS011;65538;50.798;6.064;2023-08-06T00:00:10;4.43;;;1.43;;
76640;SDS011;65538;50.798;6.064;2023-08-06T00:02:35;2.80;;;1.47;;
76640;SDS011;65538;50.798;6.064;2023-08-06T00:05:01;3.60;;;1.20;;
76640;SDS011;65538;50.798;6.064;2023-08-06T00:07:26;2.47;;;1.30;;
76640;SDS011;65538;50.798;6.064;2023-08-06T00:09:51;4.57;;;1.50;;
76640;SDS011;65538;50.798;6.064;2023-08-06T00:12:16;2.77;;;1.10;;
76640;SDS011;65538;50.798;6.064;2023-08-06T00:14:41;3.33;;;1.40;;
76640;SDS011;65538;50.798;6.064;2023-08-06T00:17:07;4.10;;;1.80;;
76640;SDS011;65538;50.798;6.064;2023-08-06T00:19:32;4.40;;;1.37;;
76640;SDS011;65538;50.798;6.064;2023-08-06T00:21:57;2.97;;;1.23;;
76640;SDS011;65538;50.798;6.064;2023-08-06T00:24:23;4.00;;;1.17;;
76640;SDS011;65538;50.798;6.064;2023-08-06T00:26:48;5.43;;;1.60;;
76640;SDS011;65538;50.798;6.064;2023-08-06T00:29:13;4.40;;;1.43;;
76640;SDS011;65538;50.798;6.064;2023-08-06T00:31:38;4.00;;;1.50;;
76640;SDS011;65538;50.798;6.064;2023-08-06T00:34:03;3.23;;;1.23;;
76640;SDS011;65538;50.798;6.064;2023-08-06T00:36:29;2.83;;;1.07;;
76640;SDS011;65538;50.798;6.064;2023-08-06T00:38:54;3.47;;;1.10;;
76640;SDS011;65538;50.798;6.064;2023-08-06T00:41:20;2.58;;;1.15;;
76640;SDS011;65538;50.798;6.064;2023-08-06T00:43:46;4.17;;;1.20;;
76640;SDS011;65538;50.798;6.064;2023-08-06T00:46:11;3.43;;;1.17;;
76640;SDS011;65538;50.798;6.064;2023-08-06T00:48:36;2.30;;;1.10;;
76640;SDS011;65538;50.798;6.064;2023-08-06T00:51:01;3.53;;;0.93;;
76640;SDS011;65538;50.798;6.064;2023-08-06T00:53:26;2.50;;;0.90;;
76640;SDS011;65538;50.798;6.064;2023-08-06T00:55:52;7.10;;;1.23;;
76640;SDS011;65538;50.798;6.064;2023-08-06T00:58:17;2.30;;;0.80;;
76640;SDS011;65538;50.798;6.064;2023-08-06T01:00:43;3.42;;;1.10;;
76640;SDS011;65538;50.798;6.064;2023-08-06T01:03:08;2.97;;;0.80;;
76640;SDS011;65538;50.798;6.064;2023-08-06T01:05:33;2.97;;;1.30;;
76640;SDS011;65538;50.798;6.064;2023-08-06T01:08:06;2.63;;;1.13;;
76640;SDS011;65538;50.798;6.064;2023-08-06T01:15:53;2.00;;;0.93;;
76640;SDS011;65538;50.798;6.064;2023-08-06T01:18:19;2.67;;;1.00;;
76640;SDS011;65538;50.798;6.064;2023-08-06T01:20:44;3.17;;;1.10;;
76640;SDS011;65538;50.798;6.064;2023-08-06T01:23:10;3.27;;;1.10;;
76640;SDS011;65538;50.798;6.064;2023-08-06T01:31:07;3.05;;;1.33;;
76640;SDS011;65538;50.798;6.064;2023-08-06T01:33:35;2.55;;;1.10;;
76640;SDS011;65538;50.798;6.064;2023-08-06T01:36:02;5.35;;;1.33;;
76640;SDS011;65538;50.798;6.064;2023-08-06T01:38:28;3.05;;;1.15;;
76640;SDS011;65538;50.798;6.064;2023-08-06T01:40:53;3.23;;;0.97;;
76640;SDS011;65538;50.798;6.064;2023-08-06T01:43:18;3.60;;;1.07;;
76640;SDS011;65538;50.798;6.064;2023-08-06T01:45:44;4.70;;;1.13;;
76640;SDS011;65538;50.798;6.064;2023-08-06T01:48:09;3.40;;;1.10;;
76640;SDS011;65538;50.798;6.064;2023-08-06T01:50:34;2.50;;;1.10;;
76640;SDS011;65538;50.798;6.064;2023-08-06T01:52:59;3.70;;;1.10;;
76640;SDS011;65538;50.798;6.064;2023-08-06T01:55:25;1.90;;;0.60;;
76640;SDS011;65538;50.798;6.064;2023-08-06T01:57:50;1.93;;;0.90;;
76640;SDS011;65538;50.798;6.064;2023-08-06T02:00:15;2.47;;;0.80;;
76640;SDS011;65538;50.798;6.064;2023-08-06T02:02:40;3.63;;;1.20;;
76640;SDS011;65538;50.798;6.064;2023-08-06T02:05:08;5.88;;;1.02;;
76640;SDS011;65538;50.798;6.064;2023-08-06T02:07:33;3.37;;;1.00;;
76640;SDS011;65538;50.798;6.064;2023-08-06T02:09:59;7.70;;;1.10;;
76640;SDS011;65538;50.798;6.064;2023-08-06T02:12:24;3.40;;;1.00;;
76640;SDS011;65538;50.798;6.064;2023-08-06T02:14:49;2.57;;;1.10;;
76640;SDS011;65538;50.798;6.064;2023-08-06T02:17:14;2.77;;;1.20;;
76640;SDS011;65538;50.798;6.064;2023-08-06T02:19:39;3.13;;;1.00;;
76640;SDS011;65538;50.798;6.064;2023-08-06T02:22:06;4.70;;;0.98;;
76640;SDS011;65538;50.798;6.064;2023-08-06T02:24:31;3.33;;;0.93;;
76640;SDS011;65538;50.798;6.064;2023-08-06T02:26:56;3.20;;;1.13;;
76640;SDS011;65538;50.798;6.064;2023-08-06T02:29:22;3.73;;;0.93;;
76640;SDS011;65538;50.798;6.064;2023-08-06T02:31:47;4.37;;;1.23;;
76640;SDS011;65538;50.798;6.064;2023-08-06T02:34:12;3.03;;;0.80;;
76640;SDS011;65538;50.798;6.064;2023-08-06T02:36:37;4.93;;;1.20;;
76640;SDS011;65538;50.798;6.064;2023-08-06T02:39:03;3.40;;;1.10;;
76640;SDS011;65538;50.798;6.064;2023-08-06T02:41:28;4.07;;;1.30;;
76640;SDS011;65538;50.798;6.064;2023-08-06T02:43:53;2.53;;;1.00;;
76640;SDS011;65538;50.798;6.064;2023-08-06T02:46:18;2.20;;;1.00;;
76640;SDS011;65538;50.798;6.064;2023-08-06T02:48:43;3.60;;;0.80;;
76640;SDS011;65538;50.798;6.064;2023-08-06T02:51:09;2.53;;;1.10;;
76640;SDS011;65538;50.798;6.064;2023-08-06T02:53:34;3.23;;;1.03;;
76640;SDS011;65538;50.798;6.064;2023-08-06T02:55:59;3.30;;;1.00;;
76640;SDS011;65538;50.798;6.064;2023-08-06T02:58:24;2.00;;;0.80;;
76640;SDS011;65538;50.798;6.064;2023-08-06T03:00:59;2.60;;;0.90;;
76640;SDS011;65538;50.798;6.064;2023-08-06T03:05:53;3.50;;;1.00;;
76640;SDS011;65538;50.798;6.064;2023-08-06T03:08:18;2.60;;;1.15;;
76640;SDS011;65538;50.798;6.064;2023-08-06T03:10:47;4.60;;;1.02;;
76640;SDS011;65538;50.798;6.064;2023-08-06T03:13:12;4.97;;;1.10;;
76640;SDS011;65538;50.798;6.064;2023-08-06T03:15:37;3.57;;;1.20;;
76640;SDS011;65538;50.798;6.064;2023-08-06T03:18:02;4.07;;;0.90;;
76640;SDS011;65538;50.798;6.064;2023-08-06T03:20:28;1.93;;;1.13;;
76640;SDS011;65538;50.798;6.064;2023-08-06T03:22:53;3.00;;;0.90;;
76640;SDS011;65538;50.798;6.064;2023-08-06T03:25:18;1.63;;;0.63;;
76640;SDS011;65538;50.798;6.064;2023-08-06T03:27:43;2.07;;;0.63;;
76640;SDS011;65538;50.798;6.064;2023-08-06T03:30:08;2.23;;;0.80;;
76640;SDS011;65538;50.798;6.064;2023-08-06T03:32:34;1.73;;;0.63;;
76640;SDS011;65538;50.798;6.064;2023-08-06T03:34:59;1.80;;;0.60;;
76640;SDS011;65538;50.798;6.064;2023-08-06T03:37:24;2.20;;;0.80;;
76640;SDS011;65538;50.798;6.064;2023-08-06T03:39:49;1.37;;;0.67;;
76640;SDS011;65538;50.798;6.064;2023-08-06T03:42:14;1.60;;;0.70;;
76640;SDS011;65538;50.798;6.064;2023-08-06T03:44:39;1.23;;;0.60;;
76640;SDS011;65538;50.798;6.064;2023-08-06T03:47:05;1.33;;;0.60;;
76640;SDS011;65538;50.798;6.064;2023-08-06T03:49:30;2.07;;;0.63;;
76640;SDS011;65538;50.798;6.064;2023-08-06T03:51:55;2.00;;;0.80;;
76640;SDS011;65538;50.798;6.064;2023-08-06T03:54:20;2.33;;;1.00;;
76640;SDS011;65538;50.798;6.064;2023-08-06T03:56:45;1.30;;;0.60;;
76640;SDS011;65538;50.798;6.064;2023-08-06T03:59:11;2.23;;;1.00;;
76640;SDS011;65538;50.798;6.064;2023-08-06T04:01:36;3.03;;;0.90;;
76640;SDS011;65538;50.798;6.064;2023-08-06T04:04:01;8.33;;;1.20;;
76640;SDS011;65538;50.798;6.064;2023-08-06T04:06:26;2.50;;;1.47;;
76640;SDS011;65538;50.798;6.064;2023-08-06T04:08:51;2.23;;;1.23;;
76640;SDS011;65538;50.798;6.064;2023-08-06T04:11:17;3.07;;;1.57;;
76640;SDS011;65538;50.798;6.064;2023-08-06T04:13:42;3.33;;;1.40;;
76640;SDS011;65538;50.798;6.064;2023-08-06T04:16:08;4.57;;;2.17;;
76640;SDS011;65538;50.798;6.064;2023-08-06T04:18:33;3.10;;;1.80;;
76640;SDS011;65538;50.798;6.064;2023-08-06T04:20:58;4.50;;;2.40;;
76640;SDS011;65538;50.798;6.064;2023-08-06T04:23:23;7.03;;;2.13;;
76640;SDS011;65538;50.798;6.064;2023-08-06T04:25:49;4.97;;;2.10;;
76640;SDS011;65538;50.798;6.064;2023-08-06T04:28:14;4.80;;;2.57;;
76640;SDS011;65538;50.798;6.064;2023-08-06T04:30:39;4.10;;;2.63;;
76640;SDS011;65538;50.798;6.064;2023-08-06T04:33:04;6.10;;;2.73;;
76640;SDS011;65538;50.798;6.064;2023-08-06T04:35:30;7.03;;;2.87;;
76640;SDS011;65538;50.798;6.064;2023-08-06T04:37:55;5.67;;;3.30;;
76640;SDS011;65538;50.798;6.064;2023-08-06T04:40:20;5.53;;;3.03;;
76640;SDS011;65538;50.798;6.064;2023-08-06T04:42:45;8.70;;;3.30;;
76640;SDS011;65538;50.798;6.064;2023-08-06T04:45:10;4.40;;;2.77;;
76640;SDS011;65538;50.798;6.064;2023-08-06T04:47:36;4.97;;;3.13;;
76640;SDS011;65538;50.798;6.064;2023-08-06T04:50:01;6.23;;;3.13;;
76640;SDS011;65538;50.798;6.064;2023-08-06T04:52:26;6.40;;;3.37;;
76640;SDS011;65538;50.798;6.064;2023-08-06T04:54:53;6.45;;;2.78;;
76640;SDS011;65538;50.798;6.064;2023-08-06T04:57:18;6.18;;;3.50;;
76640;SDS011;65538;50.798;6.064;2023-08-06T04:59:43;8.40;;;3.40;;
76640;SDS011;65538;50.798;6.064;2023-08-06T05:02:08;8.80;;;3.93;;
76640;SDS011;65538;50.798;6.064;2023-08-06T05:04:34;7.33;;;4.23;;
76640;SDS011;65538;50.798;6.064;2023-08-06T05:06:59;7.13;;;3.93;;
76640;SDS011;65538;50.798;6.064;2023-08-06T05:09:25;7.40;;;4.00;;
76640;SDS011;65538;50.798;6.064;2023-08-06T05:11:50;7.13;;;3.90;;
76640;SDS011;65538;50.798;6.064;2023-08-06T05:14:15;9.43;;;5.07;;
76640;SDS011;65538;50.798;6.064;2023-08-06T05:16:41;4.63;;;2.57;;
76640;SDS011;65538;50.798;6.064;2023-08-06T05:19:06;8.70;;;4.63;;
76640;SDS011;65538;50.798;6.064;2023-08-06T05:21:31;8.10;;;4.13;;
76640;SDS011;65538;50.798;6.064;2023-08-06T05:23:56;9.70;;;4.60;;
76640;SDS011;65538;50.798;6.064;2023-08-06T05:26:21;7.53;;;3.77;;
76640;SDS011;65538;50.798;6.064;2023-08-06T05:28:47;10.00;;;4.23;;
76640;SDS011;65538;50.798;6.064;2023-08-06T05:31:12;7.10;;;4.23;;
76640;SDS011;65538;50.798;6.064;2023-08-06T05:33:37;12.50;;;4.88;;
76640;SDS011;65538;50.798;6.064;2023-08-06T05:36:02;8.60;;;4.70;;
76640;SDS011;65538;50.798;6.064;2023-08-06T05:38:29;9.00;;;4.93;;
76640;SDS011;65538;50.798;6.064;2023-08-06T05:40:54;8.15;;;4.72;;
76640;SDS011;65538;50.798;6.064;2023-08-06T05:43:20;9.23;;;5.22;;
76640;SDS011;65538;50.798;6.064;2023-08-06T05:45:45;11.40;;;5.73;;
76640;SDS011;65538;50.798;6.064;2023-08-06T05:48:11;13.07;;;6.03;;
76640;SDS011;65538;50.798;6.064;2023-08-06T05:50:36;13.50;;;5.40;;
76640;SDS011;65538;50.798;6.064;2023-08-06T05:53:01;9.97;;;5.00;;
76640;SDS011;65538;50.798;6.064;2023-08-06T05:55:27;9.10;;;5.10;;
76640;SDS011;65538;50.798;6.064;2023-08-06T05:57:52;11.40;;;5.37;;
76640;SDS011;65538;50.798;6.064;2023-08-06T06:00:17;13.23;;;5.97;;
76640;SDS011;65538;50.798;6.064;2023-08-06T06:02:43;10.13;;;6.05;;
76640;SDS011;65538;50.798;6.064;2023-08-06T06:05:08;11.30;;;6.00;;
76640;SDS011;65538;50.798;6.064;2023-08-06T06:07:33;10.40;;;5.27;;
76640;SDS011;65538;50.798;6.064;2023-08-06T06:09:59;9.97;;;5.37;;
76640;SDS011;65538;50.798;6.064;2023-08-06T06:12:24;12.93;;;5.83;;
76640;SDS011;65538;50.798;6.064;2023-08-06T06:14:51;11.77;;;6.40;;
76640;SDS011;65538;50.798;6.064;2023-08-06T06:17:16;10.77;;;5.57;;
76640;SDS011;65538;50.798;6.064;2023-08-06T06:19:41;10.83;;;5.47;;
76640;SDS011;65538;50.798;6.064;2023-08-06T06:22:06;13.67;;;5.57;;
76640;SDS011;65538;50.798;6.064;2023-08-06T06:24:31;10.93;;;5.83;;
76640;SDS011;65538;50.798;6.064;2023-08-06T06:26:57;12.10;;;6.07;;
76640;SDS011;65538;50.798;6.064;2023-08-06T06:29:22;11.63;;;5.50;;
76640;SDS011;65538;50.798;6.064;2023-08-06T06:31:47;12.07;;;6.43;;
76640;SDS011;65538;50.798;6.064;2023-08-06T06:34:12;12.27;;;5.13;;
76640;SDS011;65538;50.798;6.064;2023-08-06T06:36:37;8.87;;;5.17;;
76640;SDS011;65538;50.798;6.064;2023-08-06T06:39:02;10.07;;;5.03;;
76640;SDS011;65538;50.798;6.064;2023-08-06T06:41:28;10.77;;;5.77;;
76640;SDS011;65538;50.798;6.064;2023-08-06T06:43:56;9.50;;;5.85;;
76640;SDS011;65538;50.798;6.064;2023-08-06T06:46:21;11.33;;;7.10;;
76640;SDS011;65538;50.798;6.064;2023-08-06T06:48:46;15.30;;;6.83;;
76640;SDS011;65538;50.798;6.064;2023-08-06T06:51:12;13.07;;;7.00;;
76640;SDS011;65538;50.798;6.064;2023-08-06T06:53:37;14.27;;;7.10;;
76640;SDS011;65538;50.798;6.064;2023-08-06T06:56:03;14.07;;;7.57;;
76640;SDS011;65538;50.798;6.064;2023-08-06T06:58:29;8.80;;;6.28;;
76640;SDS011;65538;50.798;6.064;2023-08-06T07:00:54;8.37;;;5.53;;
76640;SDS011;65538;50.798;6.064;2023-08-06T07:03:19;10.00;;;5.50;;
76640;SDS011;65538;50.798;6.064;2023-08-06T07:05:45;8.40;;;5.88;;
76640;SDS011;65538;50.798;6.064;2023-08-06T07:08:10;8.65;;;5.30;;
76640;SDS011;65538;50.798;6.064;2023-08-06T07:10:36;8.98;;;5.45;;
76640;SDS011;65538;50.798;6.064;2023-08-06T07:13:01;8.80;;;5.10;;
76640;SDS011;65538;50.798;6.064;2023-08-06T07:15:26;8.33;;;5.20;;
76640;SDS011;65538;50.798;6.064;2023-08-06T07:17:51;6.90;;;3.73;;
76640;SDS011;65538;50.798;6.064;2023-08-06T07:20:17;5.73;;;3.13;;
76640;SDS011;65538;50.798;6.064;2023-08-06T07:22:43;6.63;;;3.28;;
76640;SDS011;65538;50.798;6.064;2023-08-06T07:25:08;5.13;;;3.28;;
76640;SDS011;65538;50.798;6.064;2023-08-06T07:27:33;4.40;;;2.33;;
76640;SDS011;65538;50.798;6.064;2023-08-06T07:29:59;4.67;;;2.67;;
76640;SDS011;65538;50.798;6.064;2023-08-06T07:32:24;3.47;;;2.13;;
76640;SDS011;65538;50.798;6.064;2023-08-06T07:34:49;4.10;;;2.00;;
76640;SDS011;65538;50.798;6.064;2023-08-06T07:37:14;3.70;;;1.98;;
76640;SDS011;65538;50.798;6.064;2023-08-06T07:39:40;3.90;;;2.07;;
76640;SDS011;65538;50.798;6.064;2023-08-06T07:42:06;2.75;;;1.65;;
76640;SDS011;65538;50.798;6.064;2023-08-06T07:44:32;4.10;;;1.27;;
76640;SDS011;65538;50.798;6.064;2023-08-06T07:46:57;2.60;;;1.10;;
76640;SDS011;65538;50.798;6.064;2023-08-06T07:49:22;1.60;;;0.73;;
76640;SDS011;65538;50.798;6.064;2023-08-06T07:51:47;1.87;;;0.90;;
76640;SDS011;65538;50.798;6.064;2023-08-06T07:54:13;2.73;;;1.03;;
76640;SDS011;65538;50.798;6.064;2023-08-06T07:56:38;2.42;;;1.42;;
76640;SDS011;65538;50.798;6.064;2023-08-06T07:59:03;3.80;;;1.37;;
76640;SDS011;65538;50.798;6.064;2023-08-06T08:01:29;2.50;;;1.30;;
76640;SDS011;65538;50.798;6.064;2023-08-06T08:03:54;2.57;;;1.27;;
76640;SDS011;65538;50.798;6.064;2023-08-06T08:06:19;2.90;;;1.50;;
76640;SDS011;65538;50.798;6.064;2023-08-06T08:08:44;3.00;;;2.23;;
76640;SDS011;65538;50.798;6.064;2023-08-06T08:11:09;3.53;;;2.00;;
76640;SDS011;65538;50.798;6.064;2023-08-06T08:13:35;5.67;;;2.70;;
76640;SDS011;65538;50.798;6.064;2023-08-06T08:16:00;3.97;;;2.67;;
76640;SDS011;65538;50.798;6.064;2023-08-06T08:18:25;5.15;;;4.07;;
76640;SDS011;65538;50.798;6.064;2023-08-06T08:20:51;7.23;;;4.40;;
76640;SDS011;65538;50.798;6.064;2023-08-06T08:23:16;9.60;;;5.97;;
76640;SDS011;65538;50.798;6.064;2023-08-06T08:25:41;9.60;;;5.77;;
76640;SDS011;65538;50.798;6.064;2023-08-06T08:28:06;6.80;;;5.23;;
76640;SDS011;65538;50.798;6.064;2023-08-06T08:30:32;7.80;;;5.23;;
76640;SDS011;65538;50.798;6.064;2023-08-06T08:32:57;7.90;;;6.07;;
76640;SDS011;65538;50.798;6.064;2023-08-06T08:35:22;11.40;;;6.63;;
76640;SDS011;65538;50.798;6.064;2023-08-06T08:37:47;9.27;;;5.93;;
76640;SDS011;65538;50.798;6.064;2023-08-06T08:40:13;9.07;;;6.70;;
76640;SDS011;65538;50.798;6.064;2023-08-06T08:42:39;9.48;;;6.22;;
76640;SDS011;65538;50.798;6.064;2023-08-06T08:45:04;9.30;;;6.03;;
76640;SDS011;65538;50.798;6.064;2023-08-06T08:47:31;9.10;;;5.25;;
76640;SDS011;65538;50.798;6.064;2023-08-06T08:49:56;9.63;;;5.55;;
76640;SDS011;65538;50.798;6.064;2023-08-06T08:52:22;7.28;;;4.75;;
76640;SDS011;65538;50.798;6.064;2023-08-06T08:54:48;8.60;;;5.47;;
76640;SDS011;65538;50.798;6.064;2023-08-06T08:57:17;6.70;;;4.30;;
76640;SDS011;65538;50.798;6.064;2023-08-06T08:59:42;6.28;;;2.83;;
76640;SDS011;65538;50.798;6.064;2023-08-06T09:02:07;5.77;;;2.90;;
76640;SDS011;65538;50.798;6.064;2023-08-06T09:04:34;6.20;;;2.47;;
76640;SDS011;65538;50.798;6.064;2023-08-06T09:07:01;7.05;;;2.90;;
76640;SDS011;65538;50.798;6.064;2023-08-06T09:09:28;6.95;;;2.45;;
76640;SDS011;65538;50.798;6.064;2023-08-06T09:11:55;12.43;;;2.78;;
76640;SDS011;65538;50.798;6.064;2023-08-06T09:14:23;5.72;;;2.80;;
76640;SDS011;65538;50.798;6.064;2023-08-06T09:16:48;5.53;;;2.23;;
76640;SDS011;65538;50.798;6.064;2023-08-06T09:19:13;7.07;;;2.40;;
76640;SDS011;65538;50.798;6.064;2023-08-06T09:21:42;6.47;;;2.72;;
76640;SDS011;65538;50.798;6.064;2023-08-06T09:24:11;6.72;;;3.13;;
76640;SDS011;65538;50.798;6.064;2023-08-06T09:26:37;8.52;;;2.78;;
76640;SDS011;65538;50.798;6.064;2023-08-06T09:29:04;6.88;;;2.47;;
76640;SDS011;65538;50.798;6.064;2023-08-06T09:31:33;8.15;;;2.30;;
76640;SDS011;65538;50.798;6.064;2023-08-06T09:33:59;4.93;;;2.22;;
76640;SDS011;65538;50.798;6.064;2023-08-06T09:36:24;6.00;;;2.10;;
76640;SDS011;65538;50.798;6.064;2023-08-06T09:38:50;8.13;;;2.37;;
76640;SDS011;65538;50.798;6.064;2023-08-06T09:41:26;6.33;;;1.37;;
76640;SDS011;65538;50.798;6.064;2023-08-06T09:43:52;6.45;;;1.48;;
76640;SDS011;65538;50.798;6.064;2023-08-06T09:46:17;6.13;;;1.77;;
76640;SDS011;65538;50.798;6.064;2023-08-06T09:48:46;5.40;;;2.10;;
76640;SDS011;65538;50.798;6.064;2023-08-06T09:51:11;6.93;;;1.83;;
76640;SDS011;65538;50.798;6.064;2023-08-06T09:53:38;6.68;;;1.85;;
76640;SDS011;65538;50.798;6.064;2023-08-06T09:56:04;7.07;;;2.00;;
76640;SDS011;65538;50.798;6.064;2023-08-06T09:58:29;6.80;;;2.20;;
76640;SDS011;65538;50.798;6.064;2023-08-06T10:00:55;6.25;;;2.22;;
76640;SDS011;65538;50.798;6.064;2023-08-06T10:03:21;4.77;;;1.80;;
76640;SDS011;65538;50.798;6.064;2023-08-06T10:05:47;8.82;;;2.75;;
76640;SDS011;65538;50.798;6.064;2023-08-06T10:08:12;10.67;;;2.37;;
76640;SDS011;65538;50.798;6.064;2023-08-06T10:10:37;7.03;;;2.70;;
76640;SDS011;65538;50.798;6.064;2023-08-06T10:13:03;8.43;;;2.60;;
76640;SDS011;65538;50.798;6.064;2023-08-06T10:15:30;10.52;;;3.60;;
76640;SDS011;65538;50.798;6.064;2023-08-06T10:17:56;8.13;;;3.72;;
76640;SDS011;65538;50.798;6.064;2023-08-06T10:20:23;4.53;;;2.58;;
76640;SDS011;65538;50.798;6.064;2023-08-06T10:23:04;6.13;;;3.13;;
76640;SDS011;65538;50.798;6.064;2023-08-06T10:25:30;7.32;;;2.72;;
76640;SDS011;65538;50.798;6.064;2023-08-06T10:27:56;9.35;;;3.53;;
76640;SDS011;65538;50.798;6.064;2023-08-06T10:32:51;8.55;;;2.78;;
76640;SDS011;65538;50.798;6.064;2023-08-06T10:37:58;7.78;;;3.00;;
76640;SDS011;65538;50.798;6.064;2023-08-06T10:40:23;7.28;;;2.60;;
76640;SDS011;65538;50.798;6.064;2023-08-06T10:42:49;6.97;;;2.28;;
76640;SDS011;65538;50.798;6.064;2023-08-06T10:45:15;7.07;;;2.40;;
76640;SDS011;65538;50.798;6.064;2023-08-06T10:47:41;11.35;;;2.60;;
76640;SDS011;65538;50.798;6.064;2023-08-06T10:50:07;6.40;;;2.20;;
76640;SDS011;65538;50.798;6.064;2023-08-06T10:52:33;5.32;;;1.92;;
76640;SDS011;65538;50.798;6.064;2023-08-06T10:54:58;9.52;;;2.58;;
76640;SDS011;65538;50.798;6.064;2023-08-06T10:57:24;6.10;;;1.53;;
76640;SDS011;65538;50.798;6.064;2023-08-06T10:59:49;6.63;;;2.00;;
76640;SDS011;65538;50.798;6.064;2023-08-06T11:02:14;10.23;;;2.77;;
76640;SDS011;65538;50.798;6.064;2023-08-06T11:04:39;9.27;;;2.03;;
76640;SDS011;65538;50.798;6.064;2023-08-06T11:07:06;8.68;;;2.78;;
76640;SDS011;65538;50.798;6.064;2023-08-06T11:09:31;6.05;;;2.10;;
76640;SDS011;65538;50.798;6.064;2023-08-06T11:11:57;8.40;;;3.10;;
76640;SDS011;65538;50.798;6.064;2023-08-06T11:14:22;9.73;;;3.37;;
76640;SDS011;65538;50.798;6.064;2023-08-06T11:16:47;4.93;;;2.60;;
76640;SDS011;65538;50.798;6.064;2023-08-06T11:19:12;7.97;;;3.30;;
76640;SDS011;65538;50.798;6.064;2023-08-06T11:21:40;5.07;;;2.40;;
76640;SDS011;65538;50.798;6.064;2023-08-06T11:24:05;7.07;;;3.00;;
76640;SDS011;65538;50.798;6.064;2023-08-06T11:26:30;6.60;;;2.77;;
76640;SDS011;65538;50.798;6.064;2023-08-06T11:28:55;9.90;;;2.73;;
76640;SDS011;65538;50.798;6.064;2023-08-06T11:31:23;6.17;;;2.10;;
76640;SDS011;65538;50.798;6.064;2023-08-06T11:33:55;3.60;;;1.90;;
76640;SDS011;65538;50.798;6.064;2023-08-06T11:36:30;5.03;;;2.00;;
76640;SDS011;65538;50.798;6.064;2023-08-06T11:38:55;5.13;;;2.15;;
76640;SDS011;65538;50.798;6.064;2023-08-06T11:41:21;6.93;;;2.33;;
76640;SDS011;65538;50.798;6.064;2023-08-06T11:43:46;6.50;;;2.20;;
76640;SDS011;65538;50.798;6.064;2023-08-06T11:46:12;16.40;;;3.38;;
76640;SDS011;65538;50.798;6.064;2023-08-06T11:48:52;5.03;;;2.60;;
76640;SDS011;65538;50.798;6.064;2023-08-06T11:53:48;2.92;;;1.08;;
76640;SDS011;65538;50.798;6.064;2023-08-06T11:56:13;4.60;;;1.63;;
76640;SDS011;65538;50.798;6.064;2023-08-06T11:58:40;4.53;;;1.67;;
76640;SDS011;65538;50.798;6.064;2023-08-06T12:01:05;3.22;;;1.67;;
76640;SDS011;65538;50.798;6.064;2023-08-06T12:03:30;5.80;;;1.60;;
76640;SDS011;65538;50.798;6.064;2023-08-06T12:05:56;4.40;;;1.88;;
76640;SDS011;65538;50.798;6.064;2023-08-06T12:08:25;3.13;;;1.90;;
76640;SDS011;65538;50.798;6.064;2023-08-06T12:10:51;3.70;;;2.03;;
76640;SDS011;65538;50.798;6.064;2023-08-06T12:13:18;6.32;;;2.28;;
76640;SDS011;65538;50.798;6.064;2023-08-06T12:15:43;6.70;;;2.20;;
76640;SDS011;65538;50.798;6.064;2023-08-06T12:18:09;6.50;;;3.20;;
76640;SDS011;65538;50.798;6.064;2023-08-06T12:20:34;5.82;;;3.25;;
76640;SDS011;65538;50.798;6.064;2023-08-06T12:22:59;9.87;;;3.47;;
76640;SDS011;65538;50.798;6.064;2023-08-06T12:25:25;7.30;;;3.73;;
76640;SDS011;65538;50.798;6.064;2023-08-06T12:27:50;8.40;;;2.77;;
76640;SDS011;65538;50.798;6.064;2023-08-06T12:30:15;7.45;;;3.20;;
76640;SDS011;65538;50.798;6.064;2023-08-06T12:32:40;6.00;;;3.07;;
76640;SDS011;65538;50.798;6.064;2023-08-06T12:35:06;4.60;;;2.57;;
76640;SDS011;65538;50.798;6.064;2023-08-06T12:37:32;5.68;;;2.50;;
76640;SDS011;65538;50.798;6.064;2023-08-06T12:39:57;8.43;;;2.70;;
76640;SDS011;65538;50.798;6.064;2023-08-06T12:42:22;6.43;;;2.07;;
76640;SDS011;65538;50.798;6.064;2023-08-06T12:44:49;7.03;;;2.20;;
76640;SDS011;65538;50.798;6.064;2023-08-06T12:47:15;7.00;;;3.10;;
76640;SDS011;65538;50.798;6.064;2023-08-06T12:49:40;6.28;;;2.40;;
76640;SDS011;65538;50.798;6.064;2023-08-06T12:52:05;10.07;;;2.17;;
76640;SDS011;65538;50.798;6.064;2023-08-06T12:54:32;9.77;;;2.50;;
76640;SDS011;65538;50.798;6.064;2023-08-06T12:57:02;8.57;;;2.90;;
76640;SDS011;65538;50.798;6.064;2023-08-06T12:59:27;8.32;;;2.60;;
76640;SDS011;65538;50.798;6.064;2023-08-06T13:01:52;5.90;;;1.60;;
76640;SDS011;65538;50.798;6.064;2023-08-06T13:04:17;5.20;;;1.90;;
76640;SDS011;65538;50.798;6.064;2023-08-06T13:06:43;7.53;;;1.87;;
76640;SDS011;65538;50.798;6.064;2023-08-06T13:09:11;6.00;;;1.53;;
76640;SDS011;65538;50.798;6.064;2023-08-06T13:11:38;5.72;;;1.50;;
76640;SDS011;65538;50.798;6.064;2023-08-06T13:14:12;5.78;;;1.80;;
76640;SDS011;65538;50.798;6.064;2023-08-06T13:16:38;7.93;;;2.33;;
76640;SDS011;65538;50.798;6.064;2023-08-06T13:19:05;6.85;;;2.20;;
76640;SDS011;65538;50.798;6.064;2023-08-06T13:21:34;7.38;;;2.15;;
76640;SDS011;65538;50.798;6.064;2023-08-06T13:23:59;7.65;;;2.40;;
76640;SDS011;65538;50.798;6.064;2023-08-06T13:26:25;7.63;;;1.90;;
76640;SDS011;65538;50.798;6.064;2023-08-06T13:28:50;4.57;;;1.87;;
76640;SDS011;65538;50.798;6.064;2023-08-06T13:31:15;5.88;;;2.03;;
76640;SDS011;65538;50.798;6.064;2023-08-06T13:33:41;3.80;;;1.47;;
76640;SDS011;65538;50.798;6.064;2023-08-06T13:36:06;5.40;;;1.83;;
76640;SDS011;65538;50.798;6.064;2023-08-06T13:38:31;3.07;;;1.10;;
76640;SDS011;65538;50.798;6.064;2023-08-06T13:40:56;3.20;;;1.30;;
76640;SDS011;65538;50.798;6.064;2023-08-06T13:43:22;4.33;;;1.20;;
76640;SDS011;65538;50.798;6.064;2023-08-06T13:45:47;2.43;;;1.27;;
76640;SDS011;65538;50.798;6.064;2023-08-06T13:48:12;5.33;;;2.03;;
76640;SDS011;65538;50.798;6.064;2023-08-06T13:50:37;4.97;;;2.03;;
76640;SDS011;65538;50.798;6.064;2023-08-06T13:53:03;7.43;;;2.60;;
76640;SDS011;65538;50.798;6.064;2023-08-06T13:55:28;6.25;;;1.83;;
76640;SDS011;65538;50.798;6.064;2023-08-06T13:57:53;8.80;;;2.50;;
76640;SDS011;65538;50.798;6.064;2023-08-06T14:00:18;6.37;;;2.83;;
76640;SDS011;65538;50.798;6.064;2023-08-06T14:02:44;7.53;;;3.00;;
76640;SDS011;65538;50.798;6.064;2023-08-06T14:05:09;7.95;;;3.25;;
76640;SDS011;65538;50.798;6.064;2023-08-06T14:07:35;9.55;;;3.15;;
76640;SDS011;65538;50.798;6.064;2023-08-06T14:10:00;7.30;;;2.42;;
76640;SDS011;65538;50.798;6.064;2023-08-06T14:12:25;5.60;;;2.50;;
76640;SDS011;65538;50.798;6.064;2023-08-06T14:14:50;7.40;;;2.97;;
76640;SDS011;65538;50.798;6.064;2023-08-06T14:17:16;2.40;;;1.33;;
76640;SDS011;65538;50.798;6.064;2023-08-06T14:19:41;3.10;;;1.83;;
76640;SDS011;65538;50.798;6.064;2023-08-06T14:22:06;6.27;;;1.87;;
76640;SDS011;65538;50.798;6.064;2023-08-06T14:24:32;5.40;;;1.88;;
76640;SDS011;65538;50.798;6.064;2023-08-06T14:26:57;6.00;;;2.05;;
76640;SDS011;65538;50.798;6.064;2023-08-06T14:29:22;4.07;;;1.67;;
76640;SDS011;65538;50.798;6.064;2023-08-06T14:31:47;2.93;;;1.37;;
76640;SDS011;65538;50.798;6.064;2023-08-06T14:34:13;5.00;;;1.57;;
76640;SDS011;65538;50.798;6.064;2023-08-06T14:36:38;2.53;;;1.47;;
76640;SDS011;65538;50.798;6.064;2023-08-06T14:39:03;4.70;;;1.73;;
76640;SDS011;65538;50.798;6.064;2023-08-06T14:41:28;3.63;;;1.60;;
76640;SDS011;65538;50.798;6.064;2023-08-06T14:43:54;4.77;;;1.57;;
76640;SDS011;65538;50.798;6.064;2023-08-06T14:46:19;4.93;;;1.30;;
76640;SDS011;65538;50.798;6.064;2023-08-06T14:48:44;3.22;;;1.23;;
76640;SDS011;65538;50.798;6.064;2023-08-06T14:51:10;3.33;;;1.10;;
76640;SDS011;65538;50.798;6.064;2023-08-06T14:53:35;5.47;;;1.43;;
76640;SDS011;65538;50.798;6.064;2023-08-06T14:56:00;4.28;;;1.60;;